sensor_id;sensor_type;location;lat;lon;timestamp;P1;durP1;ratioP1;P2;durP2;ratioP2
42140;SDS011;27809;51.864;5.646;2023-02-28T00:00:16;2.92;;;1.45;;
42140;SDS011;27809;51.864;5.646;2023-02-28T00:02:42;1.95;;;1.00;;
42140;SDS011;27809;51.864;5.646;2023-02-28T00:05:09;5.00;;;2.17;;
42140;SDS011;27809;51.864;5.646;2023-02-28T00:07:36;4.55;;;1.33;;
42140;SDS011;27809;51.864;5.646;2023-02-28T00:10:02;3.42;;;1.75;;
42140;SDS011;27809;51.864;5.646;2023-02-28T00:12:29;2.30;;;1.08;;
42140;SDS011;27809;51.864;5.646;2023-02-28T00:14:54;4.07;;;1.05;;
42140;SDS011;27809;51.864;5.646;2023-02-28T00:17:20;2.05;;;1.15;;
42140;SDS011;27809;51.864;5.646;2023-02-28T00:19:47;3.67;;;1.38;;
42140;SDS011;27809;51.864;5.646;2023-02-28T00:22:13;4.32;;;1.13;;
42140;SDS011;27809;51.864;5.646;2023-02-28T00:24:40;2.83;;;1.30;;
42140;SDS011;27809;51.864;5.646;2023-02-28T00:27:05;2.97;;;1.00;;
42140;SDS011;27809;51.864;5.646;2023-02-28T00:29:31;4.53;;;0.80;;
42140;SDS011;27809;51.864;5.646;2023-02-28T00:31:56;1.92;;;0.90;;
42140;SDS011;27809;51.864;5.646;2023-02-28T00:34:22;2.90;;;1.08;;
42140;SDS011;27809;51.864;5.646;2023-02-28T00:36:47;4.50;;;1.33;;
42140;SDS011;27809;51.864;5.646;2023-02-28T00:39:16;4.95;;;1.10;;
42140;SDS011;27809;51.864;5.646;2023-02-28T00:41:42;3.15;;;1.17;;
42140;SDS011;27809;51.864;5.646;2023-02-28T00:44:07;1.60;;;0.80;;
42140;SDS011;27809;51.864;5.646;2023-02-28T00:46:33;4.47;;;1.33;;
42140;SDS011;27809;51.864;5.646;2023-02-28T00:48:58;2.53;;;1.23;;
42140;SDS011;27809;51.864;5.646;2023-02-28T00:51:24;2.78;;;1.42;;
42140;SDS011;27809;51.864;5.646;2023-02-28T00:53:49;2.95;;;1.20;;
42140;SDS011;27809;51.864;5.646;2023-02-28T00:56:15;4.88;;;1.13;;
42140;SDS011;27809;51.864;5.646;2023-02-28T00:58:40;2.50;;;1.48;;
42140;SDS011;27809;51.864;5.646;2023-02-28T01:01:06;3.47;;;2.00;;
42140;SDS011;27809;51.864;5.646;2023-02-28T01:03:32;2.17;;;1.27;;
42140;SDS011;27809;51.864;5.646;2023-02-28T01:05:57;8.05;;;1.83;;
42140;SDS011;27809;51.864;5.646;2023-02-28T01:08:23;1.80;;;0.70;;
42140;SDS011;27809;51.864;5.646;2023-02-28T01:10:50;2.47;;;0.98;;
42140;SDS011;27809;51.864;5.646;2023-02-28T01:13:16;4.10;;;0.98;;
42140;SDS011;27809;51.864;5.646;2023-02-28T01:15:47;1.75;;;0.70;;
42140;SDS011;27809;51.864;5.646;2023-02-28T01:18:16;3.67;;;1.02;;
42140;SDS011;27809;51.864;5.646;2023-02-28T01:20:41;3.10;;;1.75;;
42140;SDS011;27809;51.864;5.646;2023-02-28T01:23:07;4.32;;;2.30;;
42140;SDS011;27809;51.864;5.646;2023-02-28T01:25:36;3.00;;;1.48;;
42140;SDS011;27809;51.864;5.646;2023-02-28T01:28:02;4.72;;;1.13;;
42140;SDS011;27809;51.864;5.646;2023-02-28T01:30:28;5.38;;;1.38;;
42140;SDS011;27809;51.864;5.646;2023-02-28T01:32:53;4.72;;;1.38;;
42140;SDS011;27809;51.864;5.646;2023-02-28T01:35:19;5.18;;;1.80;;
42140;SDS011;27809;51.864;5.646;2023-02-28T01:37:45;4.68;;;0.70;;
42140;SDS011;27809;51.864;5.646;2023-02-28T01:40:10;6.07;;;2.00;;
42140;SDS011;27809;51.864;5.646;2023-02-28T01:42:37;5.55;;;1.00;;
42140;SDS011;27809;51.864;5.646;2023-02-28T01:45:04;4.57;;;1.45;;
42140;SDS011;27809;51.864;5.646;2023-02-28T01:47:50;4.82;;;0.93;;
42140;SDS011;27809;51.864;5.646;2023-02-28T01:50:19;4.78;;;1.27;;
42140;SDS011;27809;51.864;5.646;2023-02-28T01:52:48;2.95;;;1.15;;
42140;SDS011;27809;51.864;5.646;2023-02-28T01:55:14;3.58;;;0.90;;
42140;SDS011;27809;51.864;5.646;2023-02-28T01:57:46;2.90;;;1.10;;
42140;SDS011;27809;51.864;5.646;2023-02-28T02:00:16;3.75;;;1.92;;
42140;SDS011;27809;51.864;5.646;2023-02-28T02:02:43;2.45;;;1.10;;
42140;SDS011;27809;51.864;5.646;2023-02-28T02:05:14;4.20;;;1.92;;
42140;SDS011;27809;51.864;5.646;2023-02-28T02:07:43;5.95;;;1.33;;
42140;SDS011;27809;51.864;5.646;2023-02-28T02:10:18;7.95;;;2.08;;
42140;SDS011;27809;51.864;5.646;2023-02-28T02:13:02;4.07;;;2.58;;
42140;SDS011;27809;51.864;5.646;2023-02-28T02:15:41;1.90;;;0.82;;
42140;SDS011;27809;51.864;5.646;2023-02-28T02:18:27;5.60;;;1.58;;
42140;SDS011;27809;51.864;5.646;2023-02-28T02:21:07;6.45;;;1.13;;
42140;SDS011;27809;51.864;5.646;2023-02-28T02:44:02;2.42;;;1.33;;
42140;SDS011;27809;51.864;5.646;2023-02-28T02:47:06;4.65;;;1.35;;
42140;SDS011;27809;51.864;5.646;2023-02-28T02:49:36;4.38;;;2.13;;
42140;SDS011;27809;51.864;5.646;2023-02-28T02:52:06;2.83;;;1.20;;
42140;SDS011;27809;51.864;5.646;2023-02-28T02:54:35;4.82;;;1.67;;
42140;SDS011;27809;51.864;5.646;2023-02-28T02:57:11;4.50;;;1.42;;
42140;SDS011;27809;51.864;5.646;2023-02-28T02:59:43;2.90;;;1.42;;
42140;SDS011;27809;51.864;5.646;2023-02-28T03:02:11;4.47;;;1.08;;
42140;SDS011;27809;51.864;5.646;2023-02-28T03:04:40;4.15;;;1.48;;
42140;SDS011;27809;51.864;5.646;2023-02-28T03:07:10;3.03;;;1.42;;
42140;SDS011;27809;51.864;5.646;2023-02-28T03:09:35;2.70;;;1.67;;
42140;SDS011;27809;51.864;5.646;2023-02-28T03:12:01;3.35;;;1.45;;
42140;SDS011;27809;51.864;5.646;2023-02-28T03:23:13;2.92;;;1.40;;
42140;SDS011;27809;51.864;5.646;2023-02-28T03:25:59;3.63;;;1.55;;
42140;SDS011;27809;51.864;5.646;2023-02-28T03:28:36;3.50;;;1.20;;
42140;SDS011;27809;51.864;5.646;2023-02-28T03:34:09;5.85;;;1.95;;
42140;SDS011;27809;51.864;5.646;2023-02-28T03:36:39;3.83;;;2.00;;
42140;SDS011;27809;51.864;5.646;2023-02-28T03:39:12;6.32;;;1.30;;
42140;SDS011;27809;51.864;5.646;2023-02-28T03:41:46;6.53;;;2.35;;
42140;SDS011;27809;51.864;5.646;2023-02-28T03:44:21;4.57;;;1.70;;
42140;SDS011;27809;51.864;5.646;2023-02-28T03:47:04;5.07;;;2.40;;
42140;SDS011;27809;51.864;5.646;2023-02-28T03:49:55;7.47;;;3.00;;
42140;SDS011;27809;51.864;5.646;2023-02-28T03:52:22;7.13;;;1.85;;
42140;SDS011;27809;51.864;5.646;2023-02-28T03:54:54;5.13;;;2.03;;
42140;SDS011;27809;51.864;5.646;2023-02-28T03:59:59;4.32;;;1.83;;
42140;SDS011;27809;51.864;5.646;2023-02-28T04:02:30;6.20;;;1.77;;
42140;SDS011;27809;51.864;5.646;2023-02-28T04:04:56;3.63;;;1.55;;
42140;SDS011;27809;51.864;5.646;2023-02-28T04:07:22;2.90;;;1.73;;
42140;SDS011;27809;51.864;5.646;2023-02-28T04:09:47;3.08;;;1.35;;
42140;SDS011;27809;51.864;5.646;2023-02-28T04:12:13;4.43;;;1.88;;
42140;SDS011;27809;51.864;5.646;2023-02-28T04:14:38;4.75;;;1.13;;
42140;SDS011;27809;51.864;5.646;2023-02-28T04:17:04;3.47;;;1.73;;
42140;SDS011;27809;51.864;5.646;2023-02-28T04:19:30;6.32;;;2.55;;
42140;SDS011;27809;51.864;5.646;2023-02-28T04:21:55;3.85;;;1.48;;
42140;SDS011;27809;51.864;5.646;2023-02-28T04:24:22;3.80;;;1.60;;
42140;SDS011;27809;51.864;5.646;2023-02-28T04:26:50;6.68;;;2.30;;
42140;SDS011;27809;51.864;5.646;2023-02-28T04:29:34;4.60;;;1.38;;
42140;SDS011;27809;51.864;5.646;2023-02-28T04:32:00;2.30;;;1.02;;
42140;SDS011;27809;51.864;5.646;2023-02-28T04:34:28;4.18;;;1.40;;
42140;SDS011;27809;51.864;5.646;2023-02-28T04:36:55;4.28;;;2.65;;
42140;SDS011;27809;51.864;5.646;2023-02-28T04:39:21;4.63;;;2.05;;
42140;SDS011;27809;51.864;5.646;2023-02-28T04:41:47;16.75;;;2.08;;
42140;SDS011;27809;51.864;5.646;2023-02-28T04:44:13;4.90;;;2.00;;
42140;SDS011;27809;51.864;5.646;2023-02-28T04:46:39;1.85;;;1.15;;
42140;SDS011;27809;51.864;5.646;2023-02-28T04:49:05;2.70;;;1.02;;
42140;SDS011;27809;51.864;5.646;2023-02-28T04:51:31;1.75;;;0.70;;
42140;SDS011;27809;51.864;5.646;2023-02-28T04:53:56;9.20;;;1.15;;
42140;SDS011;27809;51.864;5.646;2023-02-28T04:56:22;5.00;;;1.52;;
42140;SDS011;27809;51.864;5.646;2023-02-28T04:58:48;3.92;;;1.52;;
42140;SDS011;27809;51.864;5.646;2023-02-28T05:03:45;3.05;;;0.60;;
42140;SDS011;27809;51.864;5.646;2023-02-28T05:06:11;3.08;;;0.85;;
42140;SDS011;27809;51.864;5.646;2023-02-28T05:08:37;2.50;;;0.75;;
42140;SDS011;27809;51.864;5.646;2023-02-28T05:11:03;2.67;;;1.30;;
42140;SDS011;27809;51.864;5.646;2023-02-28T05:13:31;1.77;;;0.52;;
42140;SDS011;27809;51.864;5.646;2023-02-28T05:15:56;1.05;;;0.40;;
42140;SDS011;27809;51.864;5.646;2023-02-28T05:18:22;1.52;;;0.52;;
42140;SDS011;27809;51.864;5.646;2023-02-28T05:20:47;4.20;;;0.80;;
42140;SDS011;27809;51.864;5.646;2023-02-28T05:23:13;1.75;;;0.95;;
42140;SDS011;27809;51.864;5.646;2023-02-28T05:25:47;1.67;;;0.65;;
42140;SDS011;27809;51.864;5.646;2023-02-28T05:28:13;1.63;;;0.70;;
42140;SDS011;27809;51.864;5.646;2023-02-28T05:30:39;1.30;;;0.50;;
42140;SDS011;27809;51.864;5.646;2023-02-28T05:33:04;2.47;;;0.50;;
42140;SDS011;27809;51.864;5.646;2023-02-28T05:35:30;2.05;;;0.50;;
42140;SDS011;27809;51.864;5.646;2023-02-28T05:37:56;0.60;;;0.35;;
42140;SDS011;27809;51.864;5.646;2023-02-28T05:40:21;1.40;;;0.50;;
42140;SDS011;27809;51.864;5.646;2023-02-28T05:42:47;5.22;;;0.60;;
42140;SDS011;27809;51.864;5.646;2023-02-28T05:45:15;1.05;;;0.52;;
42140;SDS011;27809;51.864;5.646;2023-02-28T05:47:40;0.88;;;0.68;;
42140;SDS011;27809;51.864;5.646;2023-02-28T05:50:06;1.38;;;0.30;;
42140;SDS011;27809;51.864;5.646;2023-02-28T05:52:32;1.00;;;0.38;;
42140;SDS011;27809;51.864;5.646;2023-02-28T05:54:57;1.27;;;0.47;;
42140;SDS011;27809;51.864;5.646;2023-02-28T05:57:23;4.20;;;0.40;;
42140;SDS011;27809;51.864;5.646;2023-02-28T05:59:49;2.60;;;0.60;;
42140;SDS011;27809;51.864;5.646;2023-02-28T06:02:16;1.20;;;0.40;;
42140;SDS011;27809;51.864;5.646;2023-02-28T06:04:42;2.20;;;1.05;;
42140;SDS011;27809;51.864;5.646;2023-02-28T06:07:08;0.85;;;0.38;;
42140;SDS011;27809;51.864;5.646;2023-02-28T06:09:34;1.55;;;0.88;;
42140;SDS011;27809;51.864;5.646;2023-02-28T06:12:00;1.70;;;0.35;;
42140;SDS011;27809;51.864;5.646;2023-02-28T06:14:28;1.77;;;0.98;;
42140;SDS011;27809;51.864;5.646;2023-02-28T06:16:56;1.20;;;0.47;;
42140;SDS011;27809;51.864;5.646;2023-02-28T06:19:21;4.80;;;1.27;;
42140;SDS011;27809;51.864;5.646;2023-02-28T06:21:48;1.55;;;0.50;;
42140;SDS011;27809;51.864;5.646;2023-02-28T06:24:15;4.15;;;0.70;;
42140;SDS011;27809;51.864;5.646;2023-02-28T06:26:41;3.08;;;0.30;;
42140;SDS011;27809;51.864;5.646;2023-02-28T06:29:06;1.17;;;0.50;;
42140;SDS011;27809;51.864;5.646;2023-02-28T06:31:32;2.75;;;0.85;;
42140;SDS011;27809;51.864;5.646;2023-02-28T06:33:57;1.35;;;0.30;;
42140;SDS011;27809;51.864;5.646;2023-02-28T06:36:23;1.77;;;0.60;;
42140;SDS011;27809;51.864;5.646;2023-02-28T06:38:49;1.17;;;0.45;;
42140;SDS011;27809;51.864;5.646;2023-02-28T06:41:19;2.83;;;0.65;;
42140;SDS011;27809;51.864;5.646;2023-02-28T06:43:46;1.75;;;0.50;;
42140;SDS011;27809;51.864;5.646;2023-02-28T06:46:12;3.30;;;0.68;;
42140;SDS011;27809;51.864;5.646;2023-02-28T06:48:38;5.13;;;0.95;;
42140;SDS011;27809;51.864;5.646;2023-02-28T06:51:05;3.10;;;1.25;;
42140;SDS011;27809;51.864;5.646;2023-02-28T06:53:32;6.07;;;0.93;;
42140;SDS011;27809;51.864;5.646;2023-02-28T06:55:58;2.55;;;0.75;;
42140;SDS011;27809;51.864;5.646;2023-02-28T06:58:24;3.35;;;0.68;;
42140;SDS011;27809;51.864;5.646;2023-02-28T07:00:50;6.40;;;1.15;;
42140;SDS011;27809;51.864;5.646;2023-02-28T07:03:17;1.20;;;0.50;;
42140;SDS011;27809;51.864;5.646;2023-02-28T07:05:43;2.72;;;0.80;;
42140;SDS011;27809;51.864;5.646;2023-02-28T07:08:09;2.05;;;0.70;;
42140;SDS011;27809;51.864;5.646;2023-02-28T07:10:37;1.42;;;0.45;;
42140;SDS011;27809;51.864;5.646;2023-02-28T07:13:03;2.75;;;0.55;;
42140;SDS011;27809;51.864;5.646;2023-02-28T07:15:29;0.85;;;0.40;;
42140;SDS011;27809;51.864;5.646;2023-02-28T07:17:54;3.65;;;0.55;;
42140;SDS011;27809;51.864;5.646;2023-02-28T07:20:21;3.40;;;0.70;;
42140;SDS011;27809;51.864;5.646;2023-02-28T07:22:48;1.35;;;0.70;;
42140;SDS011;27809;51.864;5.646;2023-02-28T07:25:20;2.25;;;1.05;;
42140;SDS011;27809;51.864;5.646;2023-02-28T07:27:46;1.27;;;0.40;;
42140;SDS011;27809;51.864;5.646;2023-02-28T07:30:12;1.30;;;0.43;;
42140;SDS011;27809;51.864;5.646;2023-02-28T07:32:37;2.47;;;0.50;;
42140;SDS011;27809;51.864;5.646;2023-02-28T07:35:03;1.27;;;0.77;;
42140;SDS011;27809;51.864;5.646;2023-02-28T07:37:29;2.88;;;0.45;;
42140;SDS011;27809;51.864;5.646;2023-02-28T07:39:56;2.97;;;0.73;;
42140;SDS011;27809;51.864;5.646;2023-02-28T07:42:22;1.13;;;0.43;;
42140;SDS011;27809;51.864;5.646;2023-02-28T07:44:47;1.15;;;0.93;;
42140;SDS011;27809;51.864;5.646;2023-02-28T07:47:13;1.63;;;0.47;;
42140;SDS011;27809;51.864;5.646;2023-02-28T07:49:38;2.65;;;0.40;;
42140;SDS011;27809;51.864;5.646;2023-02-28T07:52:05;3.08;;;1.17;;
42140;SDS011;27809;51.864;5.646;2023-02-28T07:54:31;3.08;;;0.75;;
42140;SDS011;27809;51.864;5.646;2023-02-28T07:56:57;1.25;;;0.47;;
42140;SDS011;27809;51.864;5.646;2023-02-28T07:59:23;3.85;;;0.95;;
42140;SDS011;27809;51.864;5.646;2023-02-28T08:01:49;2.97;;;0.70;;
42140;SDS011;27809;51.864;5.646;2023-02-28T08:04:15;1.73;;;1.02;;
42140;SDS011;27809;51.864;5.646;2023-02-28T08:06:42;4.20;;;0.80;;
42140;SDS011;27809;51.864;5.646;2023-02-28T08:09:07;1.65;;;0.80;;
42140;SDS011;27809;51.864;5.646;2023-02-28T08:11:33;4.60;;;1.20;;
42140;SDS011;27809;51.864;5.646;2023-02-28T08:13:59;3.95;;;1.50;;
42140;SDS011;27809;51.864;5.646;2023-02-28T08:16:24;1.67;;;0.60;;
42140;SDS011;27809;51.864;5.646;2023-02-28T08:18:53;2.25;;;0.40;;
42140;SDS011;27809;51.864;5.646;2023-02-28T08:21:19;1.48;;;0.82;;
42140;SDS011;27809;51.864;5.646;2023-02-28T08:23:48;4.25;;;0.43;;
42140;SDS011;27809;51.864;5.646;2023-02-28T08:26:15;1.23;;;0.57;;
42140;SDS011;27809;51.864;5.646;2023-02-28T08:28:42;4.38;;;0.40;;
42140;SDS011;27809;51.864;5.646;2023-02-28T08:31:11;2.05;;;0.40;;
42140;SDS011;27809;51.864;5.646;2023-02-28T08:33:39;1.90;;;0.30;;
42140;SDS011;27809;51.864;5.646;2023-02-28T08:36:06;1.10;;;0.30;;
42140;SDS011;27809;51.864;5.646;2023-02-28T08:38:34;1.95;;;0.20;;
42140;SDS011;27809;51.864;5.646;2023-02-28T08:41:02;0.90;;;0.47;;
42140;SDS011;27809;51.864;5.646;2023-02-28T08:43:32;3.03;;;0.40;;
42140;SDS011;27809;51.864;5.646;2023-02-28T08:45:58;4.40;;;0.32;;
42140;SDS011;27809;51.864;5.646;2023-02-28T08:48:25;1.23;;;0.50;;
42140;SDS011;27809;51.864;5.646;2023-02-28T08:50:58;0.63;;;0.30;;
42140;SDS011;27809;51.864;5.646;2023-02-28T08:53:28;3.83;;;0.55;;
42140;SDS011;27809;51.864;5.646;2023-02-28T08:56:01;4.72;;;0.70;;
42140;SDS011;27809;51.864;5.646;2023-02-28T08:58:29;3.35;;;1.25;;
42140;SDS011;27809;51.864;5.646;2023-02-28T09:00:55;1.08;;;0.43;;
42140;SDS011;27809;51.864;5.646;2023-02-28T09:03:20;1.15;;;0.22;;
42140;SDS011;27809;51.864;5.646;2023-02-28T09:08:19;1.38;;;0.25;;
42140;SDS011;27809;51.864;5.646;2023-02-28T09:10:45;0.45;;;0.28;;
42140;SDS011;27809;51.864;5.646;2023-02-28T09:13:11;0.88;;;0.40;;
42140;SDS011;27809;51.864;5.646;2023-02-28T09:15:39;1.25;;;0.20;;
42140;SDS011;27809;51.864;5.646;2023-02-28T09:18:04;0.73;;;0.30;;
42140;SDS011;27809;51.864;5.646;2023-02-28T09:20:30;1.05;;;0.30;;
42140;SDS011;27809;51.864;5.646;2023-02-28T09:22:56;2.70;;;0.40;;
42140;SDS011;27809;51.864;5.646;2023-02-28T09:25:22;7.05;;;0.75;;
42140;SDS011;27809;51.864;5.646;2023-02-28T09:27:47;2.13;;;0.82;;
42140;SDS011;27809;51.864;5.646;2023-02-28T09:30:13;0.88;;;0.30;;
42140;SDS011;27809;51.864;5.646;2023-02-28T09:32:39;2.00;;;0.57;;
42140;SDS011;27809;51.864;5.646;2023-02-28T09:35:05;0.52;;;0.20;;
42140;SDS011;27809;51.864;5.646;2023-02-28T09:37:31;0.30;;;0.20;;
42140;SDS011;27809;51.864;5.646;2023-02-28T09:39:56;0.60;;;0.50;;
42140;SDS011;27809;51.864;5.646;2023-02-28T09:42:29;1.00;;;0.43;;
42140;SDS011;27809;51.864;5.646;2023-02-28T09:44:58;1.13;;;0.30;;
42140;SDS011;27809;51.864;5.646;2023-02-28T09:47:39;0.68;;;0.20;;
42140;SDS011;27809;51.864;5.646;2023-02-28T09:50:15;1.58;;;0.47;;
42140;SDS011;27809;51.864;5.646;2023-02-28T09:52:49;1.45;;;0.60;;
42140;SDS011;27809;51.864;5.646;2023-02-28T09:55:20;1.17;;;0.30;;
42140;SDS011;27809;51.864;5.646;2023-02-28T09:57:47;1.83;;;0.30;;
42140;SDS011;27809;51.864;5.646;2023-02-28T10:00:18;1.02;;;0.22;;
42140;SDS011;27809;51.864;5.646;2023-02-28T10:02:48;0.50;;;0.30;;
42140;SDS011;27809;51.864;5.646;2023-02-28T10:05:38;5.03;;;0.73;;
42140;SDS011;27809;51.864;5.646;2023-02-28T10:08:25;1.15;;;0.52;;
42140;SDS011;27809;51.864;5.646;2023-02-28T10:10:57;1.27;;;0.65;;
42140;SDS011;27809;51.864;5.646;2023-02-28T10:13:32;1.27;;;0.30;;
42140;SDS011;27809;51.864;5.646;2023-02-28T10:16:01;1.45;;;0.50;;
42140;SDS011;27809;51.864;5.646;2023-02-28T10:21:26;3.00;;;0.30;;
42140;SDS011;27809;51.864;5.646;2023-02-28T10:23:59;0.60;;;0.30;;
42140;SDS011;27809;51.864;5.646;2023-02-28T10:26:29;1.30;;;0.38;;
42140;SDS011;27809;51.864;5.646;2023-02-28T10:28:57;1.17;;;0.68;;
42140;SDS011;27809;51.864;5.646;2023-02-28T10:31:22;11.40;;;2.88;;
42140;SDS011;27809;51.864;5.646;2023-02-28T10:33:48;0.50;;;0.40;;
42140;SDS011;27809;51.864;5.646;2023-02-28T10:36:15;14.50;;;2.65;;
42140;SDS011;27809;51.864;5.646;2023-02-28T10:38:43;3.55;;;0.63;;
42140;SDS011;27809;51.864;5.646;2023-02-28T10:41:14;1.95;;;0.63;;
42140;SDS011;27809;51.864;5.646;2023-02-28T10:43:42;3.67;;;1.30;;
42140;SDS011;27809;51.864;5.646;2023-02-28T10:48:42;1.00;;;0.20;;
42140;SDS011;27809;51.864;5.646;2023-02-28T10:51:14;0.55;;;0.10;;
42140;SDS011;27809;51.864;5.646;2023-02-28T11:01:17;1.42;;;0.50;;
42140;SDS011;27809;51.864;5.646;2023-02-28T11:03:46;0.55;;;0.22;;
42140;SDS011;27809;51.864;5.646;2023-02-28T11:06:22;1.25;;;0.30;;
42140;SDS011;27809;51.864;5.646;2023-02-28T11:08:52;0.95;;;0.30;;
42140;SDS011;27809;51.864;5.646;2023-02-28T11:11:19;0.35;;;0.10;;
42140;SDS011;27809;51.864;5.646;2023-02-28T11:13:46;0.80;;;0.30;;
42140;SDS011;27809;51.864;5.646;2023-02-28T11:16:14;0.57;;;0.52;;
42140;SDS011;27809;51.864;5.646;2023-02-28T11:18:42;1.00;;;0.25;;
42140;SDS011;27809;51.864;5.646;2023-02-28T11:23:45;4.40;;;0.40;;
42140;SDS011;27809;51.864;5.646;2023-02-28T11:26:34;0.77;;;0.40;;
42140;SDS011;27809;51.864;5.646;2023-02-28T11:29:03;0.60;;;0.50;;
42140;SDS011;27809;51.864;5.646;2023-02-28T11:31:54;2.15;;;0.30;;
42140;SDS011;27809;51.864;5.646;2023-02-28T11:36:53;1.90;;;0.68;;
42140;SDS011;27809;51.864;5.646;2023-02-28T11:39:21;0.93;;;0.40;;
42140;SDS011;27809;51.864;5.646;2023-02-28T11:44:19;0.68;;;0.43;;
42140;SDS011;27809;51.864;5.646;2023-02-28T11:52:42;1.30;;;0.90;;
42140;SDS011;27809;51.864;5.646;2023-02-28T11:55:25;1.85;;;0.50;;
42140;SDS011;27809;51.864;5.646;2023-02-28T11:58:00;1.67;;;0.32;;
42140;SDS011;27809;51.864;5.646;2023-02-28T12:03:45;0.82;;;0.28;;
42140;SDS011;27809;51.864;5.646;2023-02-28T12:12:03;2.20;;;0.93;;
42140;SDS011;27809;51.864;5.646;2023-02-28T12:15:04;0.60;;;0.30;;
42140;SDS011;27809;51.864;5.646;2023-02-28T12:29:14;0.88;;;0.40;;
42140;SDS011;27809;51.864;5.646;2023-02-28T12:31:55;1.10;;;0.35;;
42140;SDS011;27809;51.864;5.646;2023-02-28T12:34:31;1.58;;;0.30;;
42140;SDS011;27809;51.864;5.646;2023-02-28T12:37:02;0.93;;;0.38;;
42140;SDS011;27809;51.864;5.646;2023-02-28T12:39:34;0.73;;;0.22;;
42140;SDS011;27809;51.864;5.646;2023-02-28T12:42:07;2.38;;;0.75;;
42140;SDS011;27809;51.864;5.646;2023-02-28T12:44:52;0.73;;;0.28;;
42140;SDS011;27809;51.864;5.646;2023-02-28T12:47:23;1.70;;;0.40;;
42140;SDS011;27809;51.864;5.646;2023-02-28T12:49:50;1.25;;;0.68;;
42140;SDS011;27809;51.864;5.646;2023-02-28T12:52:31;0.95;;;0.40;;
42140;SDS011;27809;51.864;5.646;2023-02-28T12:58:23;0.77;;;0.32;;
42140;SDS011;27809;51.864;5.646;2023-02-28T13:09:33;1.70;;;1.15;;
42140;SDS011;27809;51.864;5.646;2023-02-28T13:11:58;2.50;;;0.45;;
42140;SDS011;27809;51.864;5.646;2023-02-28T13:14:37;1.02;;;0.30;;
42140;SDS011;27809;51.864;5.646;2023-02-28T13:19:29;1.33;;;0.40;;
42140;SDS011;27809;51.864;5.646;2023-02-28T13:22:00;1.50;;;0.38;;
42140;SDS011;27809;51.864;5.646;2023-02-28T13:24:46;2.65;;;0.47;;
42140;SDS011;27809;51.864;5.646;2023-02-28T13:29:40;0.77;;;0.45;;
42140;SDS011;27809;51.864;5.646;2023-02-28T13:34:36;0.88;;;0.30;;
42140;SDS011;27809;51.864;5.646;2023-02-28T13:47:40;2.70;;;0.50;;
42140;SDS011;27809;51.864;5.646;2023-02-28T13:50:20;1.20;;;0.47;;
42140;SDS011;27809;51.864;5.646;2023-02-28T13:52:57;1.50;;;0.30;;
42140;SDS011;27809;51.864;5.646;2023-02-28T14:00:49;0.80;;;0.35;;
42140;SDS011;27809;51.864;5.646;2023-02-28T14:03:26;0.63;;;0.38;;
42140;SDS011;27809;51.864;5.646;2023-02-28T14:09:01;1.23;;;0.68;;
42140;SDS011;27809;51.864;5.646;2023-02-28T14:11:43;2.58;;;0.95;;
42140;SDS011;27809;51.864;5.646;2023-02-28T14:14:09;1.38;;;0.38;;
42140;SDS011;27809;51.864;5.646;2023-02-28T14:17:07;1.33;;;0.50;;
42140;SDS011;27809;51.864;5.646;2023-02-28T14:19:38;8.80;;;1.17;;
42140;SDS011;27809;51.864;5.646;2023-02-28T14:28:02;1.10;;;0.30;;
42140;SDS011;27809;51.864;5.646;2023-02-28T14:30:51;2.03;;;0.52;;
42140;SDS011;27809;51.864;5.646;2023-02-28T14:36:26;1.13;;;0.50;;
42140;SDS011;27809;51.864;5.646;2023-02-28T14:39:07;1.20;;;0.30;;
42140;SDS011;27809;51.864;5.646;2023-02-28T14:41:37;6.32;;;0.98;;
42140;SDS011;27809;51.864;5.646;2023-02-28T14:44:14;0.82;;;0.40;;
42140;SDS011;27809;51.864;5.646;2023-02-28T14:46:46;0.43;;;0.30;;
42140;SDS011;27809;51.864;5.646;2023-02-28T14:49:17;8.27;;;1.48;;
42140;SDS011;27809;51.864;5.646;2023-02-28T14:52:02;0.63;;;0.30;;
42140;SDS011;27809;51.864;5.646;2023-02-28T14:54:38;0.77;;;0.40;;
42140;SDS011;27809;51.864;5.646;2023-02-28T14:57:05;1.05;;;0.45;;
42140;SDS011;27809;51.864;5.646;2023-02-28T14:59:33;3.08;;;0.40;;
42140;SDS011;27809;51.864;5.646;2023-02-28T15:04:58;1.45;;;0.60;;
42140;SDS011;27809;51.864;5.646;2023-02-28T15:07:25;1.42;;;0.30;;
42140;SDS011;27809;51.864;5.646;2023-02-28T15:12:57;1.55;;;0.73;;
42140;SDS011;27809;51.864;5.646;2023-02-28T15:20:50;0.73;;;0.47;;
42140;SDS011;27809;51.864;5.646;2023-02-28T15:23:16;1.15;;;0.40;;
42140;SDS011;27809;51.864;5.646;2023-02-28T15:25:44;0.70;;;0.35;;
42140;SDS011;27809;51.864;5.646;2023-02-28T15:28:12;1.48;;;0.30;;
42140;SDS011;27809;51.864;5.646;2023-02-28T15:30:50;0.70;;;0.30;;
42140;SDS011;27809;51.864;5.646;2023-02-28T15:33:31;4.13;;;1.08;;
42140;SDS011;27809;51.864;5.646;2023-02-28T15:36:14;1.65;;;0.60;;
42140;SDS011;27809;51.864;5.646;2023-02-28T15:38:42;1.80;;;0.52;;
42140;SDS011;27809;51.864;5.646;2023-02-28T15:41:25;2.97;;;0.73;;
42140;SDS011;27809;51.864;5.646;2023-02-28T15:46:41;1.15;;;0.50;;
42140;SDS011;27809;51.864;5.646;2023-02-28T15:49:18;3.15;;;0.77;;
42140;SDS011;27809;51.864;5.646;2023-02-28T15:51:45;0.47;;;0.32;;
42140;SDS011;27809;51.864;5.646;2023-02-28T15:54:15;0.90;;;0.38;;
42140;SDS011;27809;51.864;5.646;2023-02-28T15:56:52;1.20;;;0.30;;
42140;SDS011;27809;51.864;5.646;2023-02-28T15:59:21;1.95;;;0.68;;
42140;SDS011;27809;51.864;5.646;2023-02-28T16:05:22;1.33;;;0.55;;
42140;SDS011;27809;51.864;5.646;2023-02-28T16:07:40;6.65;;;1.15;;
42140;SDS011;27809;51.864;5.646;2023-02-28T16:10:09;3.92;;;1.42;;
42140;SDS011;27809;51.864;5.646;2023-02-28T16:12:37;1.00;;;0.47;;
42140;SDS011;27809;51.864;5.646;2023-02-28T16:17:56;4.75;;;0.40;;
42140;SDS011;27809;51.864;5.646;2023-02-28T16:20:23;2.45;;;0.38;;
42140;SDS011;27809;51.864;5.646;2023-02-28T16:22:51;1.25;;;0.73;;
42140;SDS011;27809;51.864;5.646;2023-02-28T16:25:18;2.08;;;0.30;;
42140;SDS011;27809;51.864;5.646;2023-02-28T16:27:47;0.98;;;0.40;;
42140;SDS011;27809;51.864;5.646;2023-02-28T16:30:19;5.07;;;0.43;;
42140;SDS011;27809;51.864;5.646;2023-02-28T16:32:46;1.15;;;0.63;;
42140;SDS011;27809;51.864;5.646;2023-02-28T16:35:13;1.00;;;0.38;;
42140;SDS011;27809;51.864;5.646;2023-02-28T16:37:39;2.30;;;0.68;;
42140;SDS011;27809;51.864;5.646;2023-02-28T16:40:05;1.33;;;0.40;;
42140;SDS011;27809;51.864;5.646;2023-02-28T16:42:33;2.28;;;0.82;;
42140;SDS011;27809;51.864;5.646;2023-02-28T16:44:58;1.02;;;0.30;;
42140;SDS011;27809;51.864;5.646;2023-02-28T16:47:24;0.85;;;0.40;;
42140;SDS011;27809;51.864;5.646;2023-02-28T16:49:51;1.10;;;0.40;;
42140;SDS011;27809;51.864;5.646;2023-02-28T16:52:17;2.35;;;0.70;;
42140;SDS011;27809;51.864;5.646;2023-02-28T16:54:43;2.55;;;0.88;;
42140;SDS011;27809;51.864;5.646;2023-02-28T16:57:15;2.58;;;0.38;;
42140;SDS011;27809;51.864;5.646;2023-02-28T16:59:45;0.90;;;0.40;;
42140;SDS011;27809;51.864;5.646;2023-02-28T17:02:11;1.48;;;0.60;;
42140;SDS011;27809;51.864;5.646;2023-02-28T17:04:39;0.82;;;0.60;;
42140;SDS011;27809;51.864;5.646;2023-02-28T17:07:04;3.42;;;0.57;;
42140;SDS011;27809;51.864;5.646;2023-02-28T17:09:33;7.32;;;0.82;;
42140;SDS011;27809;51.864;5.646;2023-02-28T17:11:58;0.80;;;0.50;;
42140;SDS011;27809;51.864;5.646;2023-02-28T17:14:24;1.45;;;0.52;;
42140;SDS011;27809;51.864;5.646;2023-02-28T17:16:49;3.17;;;0.40;;
42140;SDS011;27809;51.864;5.646;2023-02-28T17:19:15;4.82;;;0.30;;
42140;SDS011;27809;51.864;5.646;2023-02-28T17:21:42;1.85;;;0.50;;
42140;SDS011;27809;51.864;5.646;2023-02-28T17:24:08;1.08;;;0.40;;
42140;SDS011;27809;51.864;5.646;2023-02-28T17:26:34;1.73;;;1.42;;
42140;SDS011;27809;51.864;5.646;2023-02-28T17:28:59;1.60;;;0.50;;
42140;SDS011;27809;51.864;5.646;2023-02-28T17:31:25;1.10;;;0.40;;
42140;SDS011;27809;51.864;5.646;2023-02-28T17:33:52;3.08;;;1.52;;